createdAt,value
2019-05-29T00:02:33.618Z,99295.72
2019-05-29T00:08:38.205Z,99307.13
2019-05-29T00:14:42.755Z,99311.98
2019-05-29T00:20:47.326Z,99315.31
2019-05-29T00:26:51.920Z,99318.97
2019-05-29T00:32:56.540Z,99334.75
2019-05-29T00:39:01.090Z,99342.70
2019-05-29T00:45:11.440Z,99358.69
2019-05-29T00:51:17.150Z,99370.90
2019-05-29T00:57:21.795Z,99378.66
2019-05-29T01:03:26.346Z,99379.11
2019-05-29T01:09:30.980Z,99383.17
2019-05-29T01:15:35.540Z,99396.80
2019-05-29T01:21:41.622Z,99411.66
2019-05-29T01:27:46.180Z,99419.89
2019-05-29T01:33:50.721Z,99421.78
2019-05-29T01:39:55.319Z,99430.27
2019-05-29T01:45:59.873Z,99436.47
2019-05-29T01:52:04.490Z,99441.12
2019-05-29T01:58:09.043Z,99443.70
2019-05-29T02:04:13.594Z,99448.17
2019-05-29T02:10:18.393Z,99457.91
2019-05-29T02:16:23.027Z,99460.13
2019-05-29T02:22:27.578Z,99464.64
2019-05-29T02:28:32.282Z,99467.27
2019-05-29T02:34:36.831Z,99475.20
2019-05-29T02:40:41.374Z,99480.80
2019-05-29T02:46:45.932Z,99487.08
2019-05-29T02:52:50.558Z,99496.56
2019-05-29T02:58:55.245Z,99499.76
2019-05-29T03:04:59.789Z,99502.92
2019-05-29T03:11:04.410Z,99525.16
2019-05-29T03:17:08.959Z,99531.06
2019-05-29T03:23:13.562Z,99536.42
2019-05-29T03:29:18.187Z,99542.17
2019-05-29T03:35:22.750Z,99554.20
2019-05-29T03:41:28.230Z,99560.61
2019-05-29T03:47:33.593Z,99566.60
2019-05-29T03:53:39.102Z,99585.16
2019-05-29T03:59:43.647Z,99596.41
2019-05-29T04:05:48.198Z,99602.78
2019-05-29T04:11:52.809Z,99613.31
2019-05-29T04:17:59.687Z,99609.67
2019-05-29T04:24:06.949Z,99625.61
2019-05-29T04:30:13.410Z,99637.25
2019-05-29T04:36:18.043Z,99642.95
2019-05-29T04:42:22.606Z,99652.06
2019-05-29T04:48:29.168Z,99664.52
2019-05-29T04:54:33.479Z,99669.03
2019-05-29T05:00:39.258Z,99680.44
2019-05-29T05:06:43.982Z,99689.36
2019-05-29T05:12:48.550Z,99696.49
2019-05-29T05:18:53.147Z,99706.55
2019-05-29T05:24:57.713Z,99710.15
2019-05-29T05:31:02.267Z,99712.52
2019-05-29T05:37:06.825Z,99731.11
2019-05-29T05:43:23.672Z,99742.07
2019-05-29T05:49:17.658Z,99736.94
2019-05-29T05:55:22.358Z,99747.94
2019-05-29T06:01:26.914Z,99762.17
2019-05-29T06:07:31.980Z,99774.97
2019-05-29T06:13:36.618Z,99780.20
2019-05-29T06:19:41.287Z,99788.52
2019-05-29T06:25:45.926Z,99791.77
2019-05-29T06:31:51.414Z,99790.18
2019-05-29T06:37:56.030Z,99788.26
2019-05-29T06:44:00.661Z,99799.61
2019-05-29T06:50:06.225Z,99802.87
2019-05-29T06:56:10.823Z,99810.58
2019-05-29T07:02:15.435Z,99811.61
2019-05-29T07:08:35.218Z,99823.70
2019-05-29T07:14:26.769Z,99824.70
2019-05-29T07:20:31.399Z,99832.59
2019-05-29T07:26:36.915Z,99843.67
2019-05-29T07:32:43.248Z,99843.88
2019-05-29T07:38:59.260Z,99846.58
2019-05-29T07:44:54.266Z,99844.73
2019-05-29T07:51:07.086Z,99853.12
2019-05-29T07:57:05.138Z,99861.31
2019-05-29T08:03:09.700Z,99863.25
2019-05-29T08:09:14.321Z,99871.83
2019-05-29T08:15:19.190Z,99872.47
2019-05-29T08:21:23.752Z,99879.55
2019-05-29T08:27:28.331Z,99881.64
2019-05-29T08:33:32.959Z,99890.73
2019-05-29T08:39:38.327Z,99893.36
2019-05-29T08:45:43.465Z,99898.72
2019-05-29T08:51:48.159Z,99903.65
2019-05-29T08:57:52.784Z,99901.90
2019-05-29T09:03:57.325Z,99904.03
2019-05-29T09:10:01.957Z,99916.25
2019-05-29T09:16:06.656Z,99926.79
2019-05-29T09:22:12.118Z,99931.63
2019-05-29T09:28:18.262Z,99927.40
2019-05-29T09:34:22.740Z,99931.73
2019-05-29T09:40:27.436Z,99931.85
2019-05-29T09:46:32.148Z,99932.96
2019-05-29T09:52:36.773Z,99937.58
2019-05-29T09:58:41.456Z,99939.33
2019-05-29T10:04:46.014Z,99938.05
2019-05-29T10:10:50.617Z,99952.03
2019-05-29T10:17:15.762Z,99956.55
2019-05-29T10:23:20.471Z,99963.17
2019-05-29T10:29:25.047Z,99961.84
2019-05-29T10:35:29.633Z,99956.37
2019-05-29T10:41:34.219Z,99962.87
2019-05-29T10:47:39.003Z,99956.77
2019-05-29T10:53:44.285Z,99971.88
2019-05-29T10:59:49.085Z,99968.23
2019-05-29T11:05:53.827Z,99957.36
2019-05-29T11:11:58.556Z,99963.78
2019-05-29T11:18:03.201Z,99964.77
2019-05-29T11:24:07.913Z,99966.70
2019-05-29T11:30:12.993Z,99967.99
2019-05-29T11:36:17.574Z,99961.86
2019-05-29T11:42:27.446Z,99962.98
2019-05-29T11:48:28.441Z,99960.02
2019-05-29T11:54:33.016Z,99963.92
2019-05-29T12:00:38.027Z,99957.89
2019-05-29T12:06:42.603Z,99955.03
2019-05-29T12:12:47.239Z,99957.06
2019-05-29T12:18:51.835Z,99957.44
2019-05-29T12:24:56.609Z,99951.66
2019-05-29T12:31:03.527Z,99948.75
2019-05-29T12:37:08.498Z,99951.81
2019-05-29T12:43:26.625Z,99962.28
2019-05-29T12:49:19.424Z,99953.92
2019-05-29T12:55:24.248Z,99951.55
2019-05-29T13:01:28.808Z,99950.76
2019-05-29T13:07:33.480Z,99951.17
2019-05-29T13:13:38.090Z,99958.57
2019-05-29T13:19:42.682Z,99953.23
2019-05-29T13:25:47.342Z,99953.00
2019-05-29T13:31:55.564Z,99945.83
2019-05-29T13:37:58.892Z,99944.58
2019-05-29T13:44:04.803Z,99938.55
2019-05-29T13:50:12.916Z,99941.42
2019-05-29T13:56:17.674Z,99931.03
2019-05-29T14:02:22.303Z,99934.83
2019-05-29T14:08:26.960Z,99936.25
2019-05-29T14:14:31.515Z,99933.06
2019-05-29T14:20:36.155Z,99938.16
2019-05-29T14:26:40.727Z,99936.05
2019-05-29T14:32:45.359Z,99940.34
2019-05-29T14:38:49.925Z,99941.25
2019-05-29T14:44:54.505Z,99943.35
2019-05-29T14:50:59.073Z,99947.32
2019-05-29T14:57:17.295Z,99937.73
2019-05-29T15:03:11.129Z,99933.63
2019-05-29T15:09:16.151Z,99937.91
2019-05-29T15:15:21.158Z,99938.61
2019-05-29T15:21:25.806Z,99936.61
2019-05-29T15:27:30.370Z,99934.06
2019-05-29T15:33:35.061Z,99941.85
2019-05-29T15:39:39.631Z,99941.59
2019-05-29T15:45:44.291Z,99941.75
2019-05-29T15:51:48.866Z,99948.33
2019-05-29T15:57:53.422Z,99945.52
2019-05-29T16:03:57.986Z,99946.91
2019-05-29T16:10:02.666Z,99949.63
2019-05-29T16:16:07.388Z,99954.87
2019-05-29T16:22:12.227Z,99949.95
2019-05-29T16:28:17.276Z,99962.18
2019-05-29T16:34:23.013Z,99960.86
2019-05-29T16:40:27.846Z,99957.66
2019-05-29T16:46:32.412Z,99962.43
2019-05-29T16:52:37.995Z,99962.69
2019-05-29T16:58:42.726Z,99967.42
2019-05-29T17:04:47.302Z,99972.71
2019-05-29T17:10:51.872Z,99977.29
2019-05-29T17:16:56.464Z,99982.27
2019-05-29T17:23:01.049Z,99977.72
2019-05-29T17:29:06.041Z,99975.91
2019-05-29T17:35:11.032Z,99975.71
2019-05-29T17:41:17.190Z,99974.14
2019-05-29T17:47:21.915Z,99977.76
2019-05-29T17:53:26.552Z,99980.27
2019-05-29T17:59:31.172Z,99980.63
2019-05-29T18:05:36.896Z,99986.98
2019-05-29T18:11:41.592Z,99991.75
2019-05-29T18:17:46.467Z,99990.48
2019-05-29T18:23:53.368Z,99991.49
2019-05-29T18:29:57.426Z,99990.63
2019-05-29T18:36:01.974Z,99995.25
2019-05-29T18:42:06.609Z,99994.77
2019-05-29T18:48:11.379Z,99991.63
2019-05-29T18:54:15.947Z,99988.80
2019-05-29T19:00:21.350Z,99990.05
2019-05-29T19:06:25.936Z,99979.21
2019-05-29T19:12:30.513Z,99985.78
2019-05-29T19:18:35.072Z,99992.78
2019-05-29T19:24:39.711Z,100002.96
2019-05-29T19:30:44.288Z,100017.96
2019-05-29T19:36:48.926Z,100022.27
2019-05-29T19:42:54.738Z,100029.70
2019-05-29T19:48:59.640Z,100046.86
2019-05-29T19:55:06.106Z,100050.59
2019-05-29T20:01:10.678Z,100056.77
2019-05-29T20:07:15.323Z,100061.27
2019-05-29T20:13:20.228Z,100064.41
2019-05-29T20:19:24.811Z,100065.91
2019-05-29T20:25:30.684Z,100075.97
2019-05-29T20:31:36.527Z,100083.39
2019-05-29T20:37:42.332Z,100082.20
2019-05-29T20:43:46.994Z,100086.36
2019-05-29T20:49:51.584Z,100090.78
2019-05-29T20:55:56.172Z,100084.83
2019-05-29T21:02:00.756Z,100090.43
2019-05-29T21:08:05.618Z,100094.67
2019-05-29T21:14:10.301Z,100098.09
2019-05-29T21:20:16.570Z,100103.93
2019-05-29T21:26:21.128Z,100113.50
2019-05-29T21:32:25.701Z,100108.89
2019-05-29T21:38:30.274Z,100106.37
2019-05-29T21:44:34.839Z,100120.32
2019-05-29T21:50:39.412Z,100116.85
2019-05-29T21:56:43.990Z,100115.23
2019-05-29T22:02:48.970Z,100116.35
2019-05-29T22:08:53.613Z,100120.38
2019-05-29T22:14:58.932Z,100116.39
2019-05-29T22:21:03.865Z,100113.59
2019-05-29T22:27:08.452Z,100124.69
2019-05-29T22:33:13.026Z,100117.90
2019-05-29T22:39:17.594Z,100129.06
2019-05-29T22:45:22.316Z,100132.72
2019-05-29T22:51:26.898Z,100131.73
2019-05-29T22:57:31.482Z,100123.58
2019-05-29T23:03:36.191Z,100119.00
2019-05-29T23:09:40.838Z,100127.30
2019-05-29T23:15:45.414Z,100117.46
2019-05-29T23:21:49.981Z,100107.48
2019-05-29T23:27:54.900Z,100112.29
2019-05-29T23:33:59.549Z,100110.72
2019-05-29T23:40:06.884Z,100106.60
2019-05-29T23:46:11.523Z,100099.88
2019-05-29T23:52:16.105Z,100092.40
2019-05-29T23:58:20.668Z,100094.64
